createdAt,value
2022-08-03T00:00:51.289Z,1001.99
2022-08-03T00:01:51.253Z,1001.99
2022-08-03T00:02:51.302Z,1001.98
2022-08-03T00:03:51.242Z,1001.96
2022-08-03T00:04:51.238Z,1001.97
2022-08-03T00:06:04.825Z,1001.98
2022-08-03T00:06:52.193Z,1001.99
2022-08-03T00:07:51.186Z,1001.99
2022-08-03T00:08:51.162Z,1001.98
2022-08-03T00:09:51.163Z,1001.96
2022-08-03T00:10:51.133Z,1001.92
2022-08-03T00:11:51.123Z,1001.93
2022-08-03T00:12:51.111Z,1001.91
2022-08-03T00:13:51.092Z,1001.92
2022-08-03T00:14:51.104Z,1001.93
2022-08-03T00:15:51.071Z,1001.92
2022-08-03T00:16:51.062Z,1001.87
2022-08-03T00:17:52.916Z,1001.94
2022-08-03T00:18:51.030Z,1001.90
2022-08-03T00:19:51.025Z,1001.95
2022-08-03T00:20:51.011Z,1001.90
2022-08-03T00:21:51.012Z,1001.95
2022-08-03T00:22:50.983Z,1001.89
2022-08-03T00:23:52.866Z,1001.85
2022-08-03T00:24:50.963Z,1001.86
2022-08-03T00:25:50.931Z,1001.86
2022-08-03T00:26:50.913Z,1001.89
2022-08-03T00:27:50.936Z,1001.83
2022-08-03T00:28:50.920Z,1001.83
2022-08-03T00:29:57.446Z,1001.86
2022-08-03T00:30:51.873Z,1001.84
2022-08-03T00:31:59.142Z,1001.83
2022-08-03T00:32:51.843Z,1001.85
2022-08-03T00:33:59.751Z,1001.77
2022-08-03T00:34:57.760Z,1001.87
2022-08-03T00:35:51.823Z,1001.85
2022-08-03T00:36:50.794Z,1001.85
2022-08-03T00:37:50.793Z,1001.87
2022-08-03T00:38:50.754Z,1001.85
2022-08-03T00:39:50.743Z,1001.87
2022-08-03T00:40:50.734Z,1001.93
2022-08-03T00:41:50.743Z,1001.92
2022-08-03T00:42:50.738Z,1001.90
2022-08-03T00:43:50.684Z,1001.95
2022-08-03T00:44:50.684Z,1001.94
2022-08-03T00:45:50.674Z,1001.97
2022-08-03T00:46:50.653Z,1001.96
2022-08-03T00:47:50.632Z,1001.93
2022-08-03T00:48:50.633Z,1001.92
2022-08-03T00:49:50.631Z,1001.93
2022-08-03T00:50:50.633Z,1001.95
2022-08-03T00:51:50.583Z,1001.90
2022-08-03T00:52:50.573Z,1001.93
2022-08-03T00:53:50.553Z,1001.91
2022-08-03T00:54:50.564Z,1001.94
2022-08-03T00:55:50.523Z,1001.94
2022-08-03T00:56:59.239Z,1001.93
2022-08-03T00:57:51.506Z,1001.88
2022-08-03T00:58:50.502Z,1001.91
2022-08-03T00:59:50.473Z,1001.93
2022-08-03T01:00:50.533Z,1001.95
2022-08-03T01:01:50.596Z,1001.90
2022-08-03T01:02:50.433Z,1001.87
2022-08-03T01:03:50.432Z,1001.91
2022-08-03T01:04:50.412Z,1001.92
2022-08-03T01:05:50.394Z,1001.91
2022-08-03T01:06:50.374Z,1001.90
2022-08-03T01:07:50.361Z,1001.93
2022-08-03T01:08:50.374Z,1001.90
2022-08-03T01:09:50.332Z,1001.85
2022-08-03T01:10:50.345Z,1001.86
2022-08-03T01:12:00.555Z,1001.88
2022-08-03T01:12:51.296Z,1001.83
2022-08-03T01:14:02.059Z,1001.80
2022-08-03T01:14:51.274Z,1001.82
2022-08-03T01:15:50.265Z,1001.81
2022-08-03T01:16:50.253Z,1001.88
2022-08-03T01:17:50.230Z,1001.82
2022-08-03T01:18:50.235Z,1001.80
2022-08-03T01:19:50.203Z,1001.76
2022-08-03T01:20:50.193Z,1001.78
2022-08-03T01:21:50.182Z,1001.80
2022-08-03T01:22:50.182Z,1001.80
2022-08-03T01:23:50.186Z,1001.81
2022-08-03T01:24:50.143Z,1001.79
2022-08-03T01:25:54.359Z,1001.78
2022-08-03T01:26:50.113Z,1001.79
2022-08-03T01:27:50.093Z,1001.78
2022-08-03T01:28:50.123Z,1001.77
2022-08-03T01:29:50.072Z,1001.79
2022-08-03T01:30:50.062Z,1001.80
2022-08-03T01:32:58.244Z,1001.75
2022-08-03T01:33:00.187Z,1001.76
2022-08-03T01:33:51.025Z,1001.77
2022-08-03T01:34:50.016Z,1001.73
2022-08-03T01:35:49.995Z,1001.76
2022-08-03T01:36:49.992Z,1001.68
2022-08-03T01:37:49.963Z,1001.71
2022-08-03T01:38:49.971Z,1001.71
2022-08-03T01:39:49.940Z,1001.70
2022-08-03T01:40:49.932Z,1001.68
2022-08-03T01:41:49.931Z,1001.67
2022-08-03T01:42:49.902Z,1001.64
2022-08-03T01:44:26.732Z,1001.69
2022-08-03T01:44:50.872Z,1001.72
2022-08-03T01:45:49.853Z,1001.67
2022-08-03T01:46:49.833Z,1001.71
2022-08-03T01:47:49.834Z,1001.80
2022-08-03T01:48:49.842Z,1001.73
2022-08-03T01:49:49.898Z,1001.78
2022-08-03T01:50:49.791Z,1001.79
2022-08-03T01:51:58.662Z,1001.80
2022-08-03T01:52:50.756Z,1001.78
2022-08-03T01:53:49.772Z,1001.80
2022-08-03T01:54:49.751Z,1001.79
2022-08-03T01:55:49.727Z,1001.73
2022-08-03T01:56:49.731Z,1001.78
2022-08-03T01:58:05.892Z,1001.76
2022-08-03T01:58:50.702Z,1001.76
2022-08-03T01:59:49.694Z,1001.77
2022-08-03T02:00:49.696Z,1001.74
2022-08-03T02:02:16.065Z,1001.75
2022-08-03T02:02:50.725Z,1001.75
2022-08-03T02:04:00.809Z,1001.75
2022-08-03T02:04:50.602Z,1001.75
2022-08-03T02:05:54.135Z,1001.71
2022-08-03T02:07:01.874Z,1001.69
2022-08-03T02:07:50.561Z,1001.69
2022-08-03T02:08:49.592Z,1001.66
2022-08-03T02:09:49.581Z,1001.70
2022-08-03T02:10:49.511Z,1001.66
2022-08-03T02:11:49.512Z,1001.65
2022-08-03T02:12:51.166Z,1001.71
2022-08-03T02:13:49.491Z,1001.67
2022-08-03T02:14:49.471Z,1001.64
2022-08-03T02:15:49.462Z,1001.66
2022-08-03T02:16:49.462Z,1001.72
2022-08-03T02:17:49.431Z,1001.71
2022-08-03T02:18:49.420Z,1001.72
2022-08-03T02:19:49.404Z,1001.69
2022-08-03T02:20:49.380Z,1001.67
2022-08-03T02:21:56.602Z,1001.67
2022-08-03T02:22:50.360Z,1001.66
2022-08-03T02:23:49.362Z,1001.69
2022-08-03T02:24:51.219Z,1001.67
2022-08-03T02:25:49.321Z,1001.66
2022-08-03T02:26:49.301Z,1001.67
2022-08-03T02:27:49.293Z,1001.63
2022-08-03T02:28:49.321Z,1001.62
2022-08-03T02:29:49.281Z,1001.60
2022-08-03T02:30:53.702Z,1001.61
2022-08-03T02:31:49.251Z,1001.60
2022-08-03T02:32:49.230Z,1001.65
2022-08-03T02:33:49.231Z,1001.66
2022-08-03T02:34:49.202Z,1001.62
2022-08-03T02:35:49.200Z,1001.67
2022-08-03T02:36:49.180Z,1001.63
2022-08-03T02:37:49.923Z,1001.67
2022-08-03T02:38:49.168Z,1001.68
2022-08-03T02:39:49.153Z,1001.66
2022-08-03T02:40:49.113Z,1001.68
2022-08-03T02:41:49.132Z,1001.68
2022-08-03T02:42:49.101Z,1001.71
2022-08-03T02:44:06.391Z,1001.71
2022-08-03T02:44:50.100Z,1001.71
2022-08-03T02:45:49.056Z,1001.71
2022-08-03T02:46:49.031Z,1001.72
2022-08-03T02:47:53.892Z,1001.70
2022-08-03T02:48:50.021Z,1001.70
2022-08-03T02:49:51.548Z,1001.71
2022-08-03T02:50:48.990Z,1001.71
2022-08-03T02:51:48.980Z,1001.71
2022-08-03T02:52:48.961Z,1001.69
2022-08-03T02:53:48.943Z,1001.69
2022-08-03T02:54:48.940Z,1001.69
2022-08-03T02:55:48.931Z,1001.69
2022-08-03T02:56:48.912Z,1001.72
2022-08-03T02:57:48.912Z,1001.69
2022-08-03T02:58:48.882Z,1001.68
2022-08-03T02:59:48.870Z,1001.71
2022-08-03T03:00:48.921Z,1001.66
2022-08-03T03:01:48.861Z,1001.64
2022-08-03T03:02:48.833Z,1001.71
2022-08-03T03:03:48.818Z,1001.66
2022-08-03T03:05:55.047Z,1001.70
2022-08-03T03:05:56.408Z,1001.69
2022-08-03T03:06:49.773Z,1001.72
2022-08-03T03:07:51.922Z,1001.74
2022-08-03T03:08:48.768Z,1001.71
2022-08-03T03:09:48.740Z,1001.70
2022-08-03T03:10:48.734Z,1001.76
2022-08-03T03:11:49.719Z,1001.72
2022-08-03T03:12:48.700Z,1001.69
2022-08-03T03:13:48.689Z,1001.72
2022-08-03T03:14:48.679Z,1001.73
2022-08-03T03:15:48.663Z,1001.73
2022-08-03T03:16:50.618Z,1001.69
2022-08-03T03:17:48.650Z,1001.69
2022-08-03T03:18:48.610Z,1001.64
2022-08-03T03:19:48.609Z,1001.70
2022-08-03T03:20:48.580Z,1001.65
2022-08-03T03:21:48.599Z,1001.68
2022-08-03T03:22:48.578Z,1001.67
2022-08-03T03:23:48.550Z,1001.68
2022-08-03T03:24:48.550Z,1001.69
2022-08-03T03:25:48.520Z,1001.67
2022-08-03T03:26:48.507Z,1001.68
2022-08-03T03:27:49.410Z,1001.69
2022-08-03T03:28:48.490Z,1001.65
2022-08-03T03:29:48.478Z,1001.68
2022-08-03T03:30:52.652Z,1001.63
2022-08-03T03:31:48.450Z,1001.63
2022-08-03T03:32:48.429Z,1001.63
2022-08-03T03:33:48.409Z,1001.61
2022-08-03T03:34:48.408Z,1001.61
2022-08-03T03:35:48.399Z,1001.63
2022-08-03T03:36:48.379Z,1001.65
2022-08-03T03:37:48.380Z,1001.63
2022-08-03T03:38:48.358Z,1001.63
2022-08-03T03:39:48.370Z,1001.66
2022-08-03T03:40:48.321Z,1001.64
2022-08-03T03:41:48.320Z,1001.64
2022-08-03T03:42:48.307Z,1001.65
2022-08-03T03:43:48.286Z,1001.65
2022-08-03T03:44:48.270Z,1001.65
2022-08-03T03:45:48.259Z,1001.63
2022-08-03T03:46:48.246Z,1001.62
2022-08-03T03:47:48.239Z,1001.62
2022-08-03T03:48:48.238Z,1001.59
2022-08-03T03:49:48.208Z,1001.60
2022-08-03T03:50:48.189Z,1001.60
2022-08-03T03:51:48.188Z,1001.62
2022-08-03T03:52:48.169Z,1001.62
2022-08-03T03:53:48.148Z,1001.60
2022-08-03T03:54:48.150Z,1001.59
2022-08-03T03:55:59.316Z,1001.61
2022-08-03T03:56:49.129Z,1001.62
2022-08-03T03:57:48.130Z,1001.60
2022-08-03T03:58:48.088Z,1001.61
2022-08-03T03:59:48.078Z,1001.58
2022-08-03T04:00:48.120Z,1001.60
2022-08-03T04:01:48.079Z,1001.63
2022-08-03T04:02:49.038Z,1001.64
2022-08-03T04:03:48.047Z,1001.55
2022-08-03T04:04:48.018Z,1001.64
2022-08-03T04:05:47.998Z,1001.63
2022-08-03T04:06:47.977Z,1001.60
2022-08-03T04:07:47.978Z,1001.67
2022-08-03T04:08:47.959Z,1001.68
2022-08-03T04:09:47.949Z,1001.67
2022-08-03T04:10:47.920Z,1001.61
2022-08-03T04:11:47.929Z,1001.64
2022-08-03T04:12:50.423Z,1001.65
2022-08-03T04:13:47.887Z,1001.63
2022-08-03T04:14:47.878Z,1001.64
2022-08-03T04:15:47.868Z,1001.61
2022-08-03T04:16:47.860Z,1001.63
2022-08-03T04:17:47.839Z,1001.67
2022-08-03T04:18:47.826Z,1001.63
2022-08-03T04:19:47.820Z,1001.63
2022-08-03T04:20:47.812Z,1001.68
2022-08-03T04:21:47.807Z,1001.70
2022-08-03T04:22:47.768Z,1001.70
2022-08-03T04:23:47.767Z,1001.72
2022-08-03T04:24:47.738Z,1001.74
2022-08-03T04:25:47.717Z,1001.78
2022-08-03T04:26:52.338Z,1001.74
2022-08-03T04:28:08.235Z,1001.79
2022-08-03T04:28:48.688Z,1001.80
2022-08-03T04:29:48.474Z,1001.71
2022-08-03T04:30:47.656Z,1001.76
2022-08-03T04:31:47.668Z,1001.76
2022-08-03T04:32:47.627Z,1001.76
2022-08-03T04:33:47.617Z,1001.79
2022-08-03T04:34:47.618Z,1001.78
2022-08-03T04:36:01.071Z,1001.77
2022-08-03T04:36:48.579Z,1001.84
2022-08-03T04:37:47.567Z,1001.84
2022-08-03T04:38:47.547Z,1001.84
2022-08-03T04:39:47.538Z,1001.85
2022-08-03T04:40:47.525Z,1001.87
2022-08-03T04:42:06.711Z,1001.85
2022-08-03T04:42:48.511Z,1001.91
2022-08-03T04:43:47.497Z,1001.91
2022-08-03T04:44:47.482Z,1001.90
2022-08-03T04:45:47.458Z,1001.84
2022-08-03T04:46:52.750Z,1001.90
2022-08-03T04:47:48.438Z,1001.87
2022-08-03T04:48:47.436Z,1001.84
2022-08-03T04:49:47.417Z,1001.86
2022-08-03T04:50:47.407Z,1001.87
2022-08-03T04:51:47.395Z,1001.89
2022-08-03T04:52:47.367Z,1001.93
2022-08-03T04:53:47.362Z,1001.87
2022-08-03T04:54:50.539Z,1001.90
2022-08-03T04:55:47.357Z,1001.94
2022-08-03T04:56:47.318Z,1001.97
2022-08-03T04:57:47.297Z,1001.89
2022-08-03T04:58:47.288Z,1001.90
2022-08-03T04:59:47.281Z,1001.88
2022-08-03T05:00:47.249Z,1001.90
2022-08-03T05:01:47.330Z,1001.93
2022-08-03T05:02:47.238Z,1001.94
2022-08-03T05:03:47.218Z,1001.91
2022-08-03T05:04:47.213Z,1001.94
2022-08-03T05:05:49.644Z,1001.96
2022-08-03T05:06:48.070Z,1001.99
2022-08-03T05:07:47.158Z,1001.94
2022-08-03T05:08:48.876Z,1001.92
2022-08-03T05:09:52.313Z,1001.92
2022-08-03T05:10:48.129Z,1001.93
2022-08-03T05:11:47.137Z,1001.94
2022-08-03T05:12:47.093Z,1001.97
2022-08-03T05:13:47.089Z,1001.92
2022-08-03T05:14:47.079Z,1001.99
2022-08-03T05:15:47.074Z,1001.94
2022-08-03T05:16:47.062Z,1001.95
2022-08-03T05:17:47.040Z,1001.95
2022-08-03T05:18:47.034Z,1001.97
2022-08-03T05:19:47.010Z,1001.94
2022-08-03T05:20:46.989Z,1001.95
2022-08-03T05:21:52.543Z,1001.96
2022-08-03T05:22:47.979Z,1001.93
2022-08-03T05:23:46.965Z,1001.90
2022-08-03T05:24:46.941Z,1001.93
2022-08-03T05:25:50.006Z,1001.94
2022-08-03T05:26:46.923Z,1001.93
2022-08-03T05:27:46.911Z,1001.94
2022-08-03T05:28:51.022Z,1001.92
2022-08-03T05:29:46.885Z,1001.92
2022-08-03T05:30:46.865Z,1001.91
2022-08-03T05:31:46.871Z,1001.89
2022-08-03T05:32:46.840Z,1001.86
2022-08-03T05:33:46.822Z,1001.85
2022-08-03T05:34:46.812Z,1001.86
2022-08-03T05:36:00.449Z,1001.86
2022-08-03T05:36:47.792Z,1001.85
2022-08-03T05:37:54.579Z,1001.86
2022-08-03T05:38:47.765Z,1001.88
2022-08-03T05:39:46.755Z,1001.83
2022-08-03T05:40:56.622Z,1001.87
2022-08-03T05:41:47.754Z,1001.88
2022-08-03T05:42:46.704Z,1001.87
2022-08-03T05:43:46.711Z,1001.86
2022-08-03T05:44:46.685Z,1001.87
2022-08-03T05:45:46.667Z,1001.87
2022-08-03T05:46:47.663Z,1001.89
2022-08-03T05:47:46.662Z,1001.85
2022-08-03T05:48:46.636Z,1001.86
2022-08-03T05:49:46.625Z,1001.87
2022-08-03T05:50:46.605Z,1001.88
2022-08-03T05:51:46.616Z,1001.87
2022-08-03T05:52:47.576Z,1001.92
2022-08-03T05:53:46.605Z,1001.85
2022-08-03T05:54:57.496Z,1001.90
2022-08-03T05:55:51.311Z,1001.90
2022-08-03T05:56:47.567Z,1001.93
2022-08-03T05:57:46.539Z,1001.95
2022-08-03T05:58:46.721Z,1001.93
2022-08-03T05:59:57.851Z,1001.93
2022-08-03T06:00:47.501Z,1001.91
2022-08-03T06:01:46.555Z,1001.91
2022-08-03T06:02:46.468Z,1001.90
2022-08-03T06:03:46.460Z,1001.88
2022-08-03T06:04:46.458Z,1001.92
2022-08-03T06:06:00.356Z,1001.90
2022-08-03T06:06:47.417Z,1001.89
2022-08-03T06:07:46.409Z,1001.95
2022-08-03T06:08:46.388Z,1001.92
2022-08-03T06:10:34.943Z,1001.96
2022-08-03T06:10:47.364Z,1001.93
2022-08-03T06:11:46.348Z,1001.95
2022-08-03T06:12:46.329Z,1001.95
2022-08-03T06:13:46.321Z,1001.96
2022-08-03T06:14:46.312Z,1001.97
2022-08-03T06:15:46.291Z,1001.99
2022-08-03T06:16:46.973Z,1001.98
2022-08-03T06:17:46.272Z,1001.97
2022-08-03T06:18:46.260Z,1001.93
2022-08-03T06:19:46.251Z,1001.95
2022-08-03T06:20:47.119Z,1001.97
2022-08-03T06:21:46.223Z,1001.96
2022-08-03T06:22:51.218Z,1001.92
2022-08-03T06:23:54.764Z,1001.93
2022-08-03T06:24:51.547Z,1001.93
2022-08-03T06:25:47.191Z,1001.91
2022-08-03T06:26:46.161Z,1001.90
2022-08-03T06:27:46.153Z,1001.90
2022-08-03T06:28:51.482Z,1001.88
2022-08-03T06:29:47.134Z,1001.87
2022-08-03T06:30:46.131Z,1001.88
2022-08-03T06:31:46.105Z,1001.86
2022-08-03T06:32:51.849Z,1001.85
2022-08-03T06:34:30.808Z,1001.83
2022-08-03T06:34:47.078Z,1001.89
2022-08-03T06:35:46.098Z,1001.90
2022-08-03T06:36:46.034Z,1001.87
2022-08-03T06:37:46.038Z,1001.90
2022-08-03T06:38:46.030Z,1001.85
2022-08-03T06:39:46.004Z,1001.84
2022-08-03T06:40:46.015Z,1001.83
2022-08-03T06:41:45.989Z,1001.84
2022-08-03T06:42:45.985Z,1001.80
2022-08-03T06:44:03.117Z,1001.78
2022-08-03T06:44:46.944Z,1001.77
2022-08-03T06:45:45.936Z,1001.79
2022-08-03T06:46:45.955Z,1001.83
2022-08-03T06:47:45.923Z,1001.85
2022-08-03T06:48:45.897Z,1001.85
2022-08-03T06:50:13.017Z,1001.86
2022-08-03T06:50:46.897Z,1001.80
2022-08-03T06:52:03.848Z,1001.81
2022-08-03T06:52:46.880Z,1001.83
2022-08-03T06:53:45.838Z,1001.89
2022-08-03T06:54:45.858Z,1001.81
2022-08-03T06:55:45.829Z,1001.83
2022-08-03T06:56:45.813Z,1001.80
2022-08-03T06:57:45.799Z,1001.80
2022-08-03T06:58:45.779Z,1001.79
2022-08-03T07:00:07.775Z,1001.82
2022-08-03T07:00:46.797Z,1001.83
2022-08-03T07:01:45.767Z,1001.81
2022-08-03T07:02:45.741Z,1001.81
2022-08-03T07:03:52.156Z,1001.87
2022-08-03T07:04:46.724Z,1001.85
2022-08-03T07:05:45.720Z,1001.84
2022-08-03T07:06:45.702Z,1001.87
2022-08-03T07:07:45.674Z,1001.81
2022-08-03T07:08:46.408Z,1001.81
2022-08-03T07:09:57.100Z,1001.84
2022-08-03T07:10:46.654Z,1001.81
2022-08-03T07:11:45.621Z,1001.83
2022-08-03T07:12:55.815Z,1001.86
2022-08-03T07:13:46.595Z,1001.88
2022-08-03T07:14:45.592Z,1001.84
2022-08-03T07:15:55.249Z,1001.85
2022-08-03T07:16:46.573Z,1001.82
2022-08-03T07:17:45.555Z,1001.83
2022-08-03T07:18:45.564Z,1001.83
2022-08-03T07:19:45.547Z,1001.83
2022-08-03T07:20:45.534Z,1001.81
2022-08-03T07:21:45.504Z,1001.83
2022-08-03T07:22:45.514Z,1001.80
2022-08-03T07:23:45.477Z,1001.83
2022-08-03T07:24:45.468Z,1001.83
2022-08-03T07:25:45.473Z,1001.80
2022-08-03T07:26:45.443Z,1001.78
2022-08-03T07:27:50.026Z,1001.81
2022-08-03T07:28:46.414Z,1001.79
2022-08-03T07:29:45.403Z,1001.78
2022-08-03T07:30:45.414Z,1001.82
2022-08-03T07:31:45.375Z,1001.73
2022-08-03T07:32:50.223Z,1001.80
2022-08-03T07:33:46.386Z,1001.77
2022-08-03T07:34:45.356Z,1001.77
2022-08-03T07:35:45.346Z,1001.76
2022-08-03T07:36:45.336Z,1001.76
2022-08-03T07:37:54.543Z,1001.78
2022-08-03T07:38:46.307Z,1001.76
2022-08-03T07:39:45.295Z,1001.75
2022-08-03T07:40:46.437Z,1001.73
2022-08-03T07:41:45.266Z,1001.75
2022-08-03T07:42:45.276Z,1001.74
2022-08-03T07:43:45.246Z,1001.76
2022-08-03T07:44:45.233Z,1001.76
2022-08-03T07:45:45.226Z,1001.76
2022-08-03T07:46:45.208Z,1001.78
2022-08-03T07:47:46.240Z,1001.78
2022-08-03T07:48:46.205Z,1001.77
2022-08-03T07:49:45.257Z,1001.73
2022-08-03T07:50:45.169Z,1001.76
2022-08-03T07:51:45.138Z,1001.75
2022-08-03T07:52:45.159Z,1001.76
2022-08-03T07:53:47.811Z,1001.79
2022-08-03T07:54:45.118Z,1001.74
2022-08-03T07:55:45.099Z,1001.69
2022-08-03T07:56:45.089Z,1001.70
2022-08-03T07:57:45.071Z,1001.67
2022-08-03T07:58:45.098Z,1001.70
2022-08-03T07:59:57.224Z,1001.66
2022-08-03T08:00:46.053Z,1001.70
2022-08-03T08:01:45.055Z,1001.66
2022-08-03T08:02:45.021Z,1001.62
2022-08-03T08:03:53.396Z,1001.66
2022-08-03T08:04:45.987Z,1001.65
2022-08-03T08:05:45.021Z,1001.61
2022-08-03T08:06:44.982Z,1001.62
2022-08-03T08:07:50.982Z,1001.62
2022-08-03T08:08:45.971Z,1001.63
2022-08-03T08:09:44.933Z,1001.64
2022-08-03T08:10:58.351Z,1001.64
2022-08-03T08:11:45.901Z,1001.64
2022-08-03T08:12:44.904Z,1001.62
2022-08-03T08:13:44.878Z,1001.62
2022-08-03T08:14:44.872Z,1001.64
2022-08-03T08:15:44.862Z,1001.61
2022-08-03T08:16:44.842Z,1001.64
2022-08-03T08:17:44.832Z,1001.61
2022-08-03T08:18:44.843Z,1001.59
2022-08-03T08:19:51.608Z,1001.60
2022-08-03T08:20:45.815Z,1001.59
2022-08-03T08:22:02.017Z,1001.60
2022-08-03T08:22:45.774Z,1001.64
2022-08-03T08:23:47.086Z,1001.61
2022-08-03T08:24:45.754Z,1001.56
2022-08-03T08:25:44.772Z,1001.54
2022-08-03T08:26:44.723Z,1001.56
2022-08-03T08:28:29.976Z,1001.57
2022-08-03T08:28:45.723Z,1001.59
2022-08-03T08:29:53.126Z,1001.61
2022-08-03T08:30:45.685Z,1001.59
2022-08-03T08:31:44.667Z,1001.59
2022-08-03T08:32:44.685Z,1001.57
2022-08-03T08:34:45.631Z,1001.59
2022-08-03T08:35:44.626Z,1001.57
2022-08-03T08:36:44.606Z,1001.57
2022-08-03T08:37:50.906Z,1001.55
2022-08-03T08:38:45.596Z,1001.52
2022-08-03T08:39:44.576Z,1001.57
2022-08-03T08:40:44.578Z,1001.53
2022-08-03T08:41:45.939Z,1001.52
2022-08-03T08:42:57.526Z,1001.51
2022-08-03T08:43:45.516Z,1001.55
2022-08-03T08:44:44.528Z,1001.55
2022-08-03T08:45:44.507Z,1001.50
2022-08-03T08:46:44.487Z,1001.50
2022-08-03T08:47:50.804Z,1001.52
2022-08-03T08:48:45.459Z,1001.48
2022-08-03T08:50:03.868Z,1001.57
2022-08-03T08:50:45.478Z,1001.58
2022-08-03T08:51:59.232Z,1001.52
2022-08-03T08:52:45.429Z,1001.52
2022-08-03T08:53:44.402Z,1001.51
2022-08-03T08:54:44.428Z,1001.46
2022-08-03T08:55:58.016Z,1001.48
2022-08-03T08:56:45.369Z,1001.54
2022-08-03T08:57:44.352Z,1001.54
2022-08-03T08:58:44.379Z,1001.46
2022-08-03T08:59:48.275Z,1001.46
2022-08-03T09:00:45.365Z,1001.49
2022-08-03T09:01:44.310Z,1001.51
2022-08-03T09:02:44.291Z,1001.51
2022-08-03T09:03:44.284Z,1001.55
2022-08-03T09:04:44.291Z,1001.46
2022-08-03T09:05:55.901Z,1001.46
2022-08-03T09:07:04.410Z,1001.43
2022-08-03T09:07:45.231Z,1001.41
2022-08-03T09:08:44.244Z,1001.46
2022-08-03T09:10:07.539Z,1001.42
2022-08-03T09:10:45.191Z,1001.42
2022-08-03T09:12:00.942Z,1001.44
2022-08-03T09:12:45.186Z,1001.46
2022-08-03T09:13:44.165Z,1001.42
2022-08-03T09:15:00.841Z,1001.48
2022-08-03T09:16:00.558Z,1001.43
2022-08-03T09:16:45.144Z,1001.40
2022-08-03T09:17:47.668Z,1001.42
2022-08-03T09:18:45.124Z,1001.41
2022-08-03T09:20:03.511Z,1001.42
2022-08-03T09:20:45.104Z,1001.44
2022-08-03T09:21:44.083Z,1001.44
2022-08-03T09:22:44.063Z,1001.46
2022-08-03T09:23:51.517Z,1001.46
2022-08-03T09:24:45.044Z,1001.46
2022-08-03T09:25:44.035Z,1001.39
2022-08-03T09:26:44.017Z,1001.47
2022-08-03T09:27:44.025Z,1001.48
2022-08-03T09:28:59.824Z,1001.44
2022-08-03T09:29:45.449Z,1001.42
2022-08-03T09:30:44.025Z,1001.42
2022-08-03T09:31:44.549Z,1001.37
2022-08-03T09:32:43.983Z,1001.32
2022-08-03T09:33:43.979Z,1001.34
2022-08-03T09:34:43.988Z,1001.33
2022-08-03T09:35:53.615Z,1001.32
2022-08-03T09:36:44.921Z,1001.35
2022-08-03T09:38:11.978Z,1001.32
2022-08-03T09:38:44.889Z,1001.32
2022-08-03T09:39:43.869Z,1001.33
2022-08-03T09:40:43.887Z,1001.34
2022-08-03T09:41:43.824Z,1001.34
2022-08-03T09:42:43.817Z,1001.33
2022-08-03T09:43:43.809Z,1001.33
2022-08-03T09:44:43.798Z,1001.31
2022-08-03T09:45:43.839Z,1001.26
2022-08-03T09:46:43.810Z,1001.25
2022-08-03T09:47:45.308Z,1001.23
2022-08-03T09:48:43.799Z,1001.26
2022-08-03T09:49:43.840Z,1001.26
2022-08-03T09:50:58.406Z,1001.23
2022-08-03T09:52:32.683Z,1001.19
2022-08-03T09:52:49.587Z,1001.21
2022-08-03T09:53:59.772Z,1001.19
2022-08-03T09:54:44.695Z,1001.13
2022-08-03T09:56:36.128Z,1001.17
2022-08-03T09:56:44.663Z,1001.17
2022-08-03T09:57:43.631Z,1001.20
2022-08-03T09:58:43.641Z,1001.14
2022-08-03T09:59:43.640Z,1001.24
2022-08-03T10:00:43.640Z,1001.24
2022-08-03T10:01:43.656Z,1001.23
2022-08-03T10:02:43.603Z,1001.20
2022-08-03T10:04:03.319Z,1001.29
2022-08-03T10:04:44.573Z,1001.24
2022-08-03T10:05:43.565Z,1001.22
2022-08-03T10:06:43.543Z,1001.21
2022-08-03T10:07:45.896Z,1001.25
2022-08-03T10:08:43.523Z,1001.18
2022-08-03T10:09:43.504Z,1001.21
2022-08-03T10:10:43.493Z,1001.16
2022-08-03T10:11:43.518Z,1001.18
2022-08-03T10:12:43.463Z,1001.18
2022-08-03T10:13:43.464Z,1001.18
2022-08-03T10:14:43.484Z,1001.13
2022-08-03T10:16:22.878Z,1001.13
2022-08-03T10:16:44.416Z,1001.07
2022-08-03T10:17:43.419Z,1001.05
2022-08-03T10:18:43.433Z,1001.11
2022-08-03T10:19:43.386Z,1001.08
2022-08-03T10:20:43.356Z,1001.10
2022-08-03T10:21:43.376Z,1001.10
2022-08-03T10:22:43.336Z,1001.08
2022-08-03T10:23:43.326Z,1001.06
2022-08-03T10:24:43.350Z,1001.06
2022-08-03T10:25:43.307Z,1001.06
2022-08-03T10:26:49.767Z,1001.06
2022-08-03T10:27:44.287Z,1001.07
2022-08-03T10:28:45.493Z,1001.05
2022-08-03T10:29:43.271Z,1001.03
2022-08-03T10:30:43.241Z,1001.03
2022-08-03T10:31:57.368Z,1001.08
2022-08-03T10:32:44.226Z,1001.07
2022-08-03T10:33:51.149Z,1001.03
2022-08-03T10:34:44.764Z,1001.03
2022-08-03T10:35:43.179Z,1000.98
2022-08-03T10:36:43.179Z,1000.93
2022-08-03T10:37:43.149Z,1000.94
2022-08-03T10:38:44.176Z,1000.99
2022-08-03T10:39:43.140Z,1000.97
2022-08-03T10:40:52.608Z,1000.94
2022-08-03T10:41:44.111Z,1000.97
2022-08-03T10:42:43.090Z,1000.92
2022-08-03T10:43:43.081Z,1000.91
2022-08-03T10:44:43.098Z,1000.93
2022-08-03T10:45:43.330Z,1000.92
2022-08-03T10:46:45.179Z,1000.91
2022-08-03T10:47:43.032Z,1000.89
2022-08-03T10:48:43.031Z,1000.88
2022-08-03T10:49:43.055Z,1000.92
2022-08-03T10:50:42.992Z,1000.83
2022-08-03T10:51:43.001Z,1000.85
2022-08-03T10:52:45.379Z,1000.85
2022-08-03T10:53:47.102Z,1000.86
2022-08-03T10:54:43.962Z,1000.87
2022-08-03T10:55:42.933Z,1000.84
2022-08-03T10:56:47.260Z,1000.79
2022-08-03T10:57:43.915Z,1000.84
2022-08-03T10:58:53.284Z,1000.91
2022-08-03T10:59:43.895Z,1000.88
2022-08-03T11:00:42.902Z,1000.82
2022-08-03T11:01:58.734Z,1000.82
2022-08-03T11:02:43.846Z,1000.84
2022-08-03T11:03:42.834Z,1000.80
2022-08-03T11:04:42.843Z,1000.79
2022-08-03T11:05:42.816Z,1000.78
2022-08-03T11:06:42.815Z,1000.77
2022-08-03T11:07:42.789Z,1000.79
2022-08-03T11:08:42.784Z,1000.77
2022-08-03T11:09:42.767Z,1000.81
2022-08-03T11:10:42.747Z,1000.79
2022-08-03T11:11:42.763Z,1000.74
2022-08-03T11:12:42.735Z,1000.74
2022-08-03T11:13:42.717Z,1000.74
2022-08-03T11:14:42.709Z,1000.73
2022-08-03T11:15:42.696Z,1000.71
2022-08-03T11:16:42.689Z,1000.71
2022-08-03T11:17:46.612Z,1000.76
2022-08-03T11:18:43.701Z,1000.79
2022-08-03T11:19:57.649Z,1000.76
2022-08-03T11:20:43.639Z,1000.80
2022-08-03T11:21:42.651Z,1000.75
2022-08-03T11:22:42.608Z,1000.74
2022-08-03T11:24:04.258Z,1000.78
2022-08-03T11:24:43.587Z,1000.71
2022-08-03T11:25:54.135Z,1000.70
2022-08-03T11:26:43.579Z,1000.71
2022-08-03T11:27:42.540Z,1000.73
2022-08-03T11:28:42.549Z,1000.72
2022-08-03T11:29:42.541Z,1000.74
2022-08-03T11:30:42.510Z,1000.72
2022-08-03T11:31:50.871Z,1000.70
2022-08-03T11:32:46.579Z,1000.69
2022-08-03T11:33:42.479Z,1000.68
2022-08-03T11:34:42.461Z,1000.72
2022-08-03T11:35:42.448Z,1000.68
2022-08-03T11:36:42.434Z,1000.68
2022-08-03T11:37:42.433Z,1000.62
2022-08-03T11:38:43.441Z,1000.65
2022-08-03T11:39:42.411Z,1000.63
2022-08-03T11:40:42.381Z,1000.64
2022-08-03T11:41:44.996Z,1000.62
2022-08-03T11:42:42.361Z,1000.62
2022-08-03T11:43:42.361Z,1000.62
2022-08-03T11:44:42.362Z,1000.62
2022-08-03T11:45:43.337Z,1000.59
2022-08-03T11:46:42.315Z,1000.56
2022-08-03T11:47:50.825Z,1000.61
2022-08-03T11:48:43.332Z,1000.61
2022-08-03T11:49:42.308Z,1000.57
2022-08-03T11:50:42.254Z,1000.58
2022-08-03T11:51:42.273Z,1000.56
2022-08-03T11:52:42.254Z,1000.53
2022-08-03T11:53:42.394Z,1000.54
2022-08-03T11:54:42.205Z,1000.55
2022-08-03T11:55:42.203Z,1000.52
2022-08-03T11:56:42.194Z,1000.50
2022-08-03T11:59:16.813Z,1000.46
2022-08-03T11:59:18.814Z,1000.53
2022-08-03T11:59:43.156Z,1000.55
2022-08-03T12:00:42.147Z,1000.53
2022-08-03T12:01:42.146Z,1000.59
2022-08-03T12:02:42.107Z,1000.57
2022-08-03T12:03:42.172Z,1000.57
2022-08-03T12:04:42.098Z,1000.53
2022-08-03T12:05:42.082Z,1000.53
2022-08-03T12:06:47.281Z,1000.52